createdAt,value
2022-10-05T00:02:24.144Z,1.92
2022-10-05T00:04:53.439Z,1.83
2022-10-05T00:07:21.679Z,1.88
2022-10-05T00:09:52.901Z,1.57
2022-10-05T00:12:22.352Z,1.63
2022-10-05T00:14:50.629Z,1.50
2022-10-05T00:17:20.730Z,1.75
2022-10-05T00:19:52.051Z,1.40
2022-10-05T00:22:20.323Z,1.70
2022-10-05T00:24:49.065Z,1.77
2022-10-05T00:27:19.640Z,1.60
2022-10-05T00:29:54.700Z,1.67
2022-10-05T00:32:22.055Z,1.50
2022-10-05T00:34:49.578Z,1.60
2022-10-05T00:37:16.924Z,1.50
2022-10-05T00:39:44.322Z,1.40
2022-10-05T00:42:18.900Z,1.48
2022-10-05T00:44:50.200Z,1.45
2022-10-05T00:47:27.891Z,1.50
2022-10-05T00:50:06.079Z,1.40
2022-10-05T00:52:36.611Z,1.20
2022-10-05T00:55:06.788Z,1.27
2022-10-05T00:57:37.928Z,1.20
2022-10-05T01:00:08.334Z,1.30
2022-10-05T01:02:40.575Z,1.20
2022-10-05T01:05:11.038Z,1.40
2022-10-05T01:07:44.008Z,1.20
2022-10-05T01:10:15.849Z,1.40
2022-10-05T01:12:46.866Z,1.30
2022-10-05T01:15:17.551Z,1.23
2022-10-05T01:17:49.022Z,1.20
2022-10-05T01:20:32.024Z,1.15
2022-10-05T01:23:07.555Z,1.20
2022-10-05T01:25:39.181Z,1.30
2022-10-05T01:28:10.546Z,1.15
2022-10-05T01:30:40.760Z,1.42
2022-10-05T01:33:12.663Z,1.27
2022-10-05T01:35:46.495Z,1.42
2022-10-05T01:38:21.446Z,1.50
2022-10-05T01:40:52.704Z,1.90
2022-10-05T01:43:24.896Z,1.75
2022-10-05T01:45:57.011Z,1.90
2022-10-05T01:48:29.513Z,2.10
2022-10-05T01:51:01.335Z,2.03
2022-10-05T01:53:33.952Z,2.10
2022-10-05T01:56:06.880Z,2.05
2022-10-05T01:58:37.967Z,2.10
2022-10-05T02:01:08.072Z,2.28
2022-10-05T02:03:37.931Z,1.93
2022-10-05T02:06:07.604Z,1.90
2022-10-05T02:08:37.955Z,1.83
2022-10-05T02:11:07.139Z,1.98
2022-10-05T02:13:39.159Z,1.98
2022-10-05T02:16:09.537Z,2.37
2022-10-05T02:18:40.922Z,2.40
2022-10-05T02:21:08.855Z,2.08
2022-10-05T02:23:37.791Z,1.98
2022-10-05T02:26:05.716Z,2.13
2022-10-05T02:28:35.751Z,2.10
2022-10-05T02:31:07.359Z,2.03
2022-10-05T02:33:35.114Z,2.00
2022-10-05T02:36:03.188Z,2.10
2022-10-05T02:38:34.775Z,2.05
2022-10-05T02:41:07.008Z,2.20
2022-10-05T02:43:40.288Z,2.10
2022-10-05T02:46:14.377Z,2.72
2022-10-05T02:48:45.534Z,2.20
2022-10-05T02:51:16.307Z,2.33
2022-10-05T02:53:48.529Z,2.30
2022-10-05T02:56:20.044Z,2.40
2022-10-05T02:58:51.991Z,2.17
2022-10-05T03:01:24.085Z,2.50
2022-10-05T03:03:55.252Z,2.50
2022-10-05T03:06:25.982Z,2.40
2022-10-05T03:08:59.162Z,2.30
2022-10-05T03:11:31.340Z,3.03
2022-10-05T03:14:03.558Z,2.40
2022-10-05T03:16:37.008Z,2.47
2022-10-05T03:19:11.938Z,2.07
2022-10-05T03:21:44.948Z,2.42
2022-10-05T03:24:26.292Z,2.40
2022-10-05T03:26:57.449Z,2.25
2022-10-05T03:29:30.346Z,2.25
2022-10-05T03:32:01.516Z,2.30
2022-10-05T03:34:33.248Z,2.38
2022-10-05T03:37:04.480Z,2.90
2022-10-05T03:39:33.596Z,2.67
2022-10-05T03:42:05.416Z,2.50
2022-10-05T03:44:37.553Z,2.53
2022-10-05T03:47:15.717Z,2.88
2022-10-05T03:49:48.934Z,3.10
2022-10-05T03:52:17.525Z,3.38
2022-10-05T03:54:46.800Z,3.30
2022-10-05T03:57:15.408Z,2.80
2022-10-05T03:59:47.436Z,2.80
2022-10-05T04:02:21.993Z,3.10
2022-10-05T04:04:51.611Z,3.00
2022-10-05T04:07:26.090Z,2.88
2022-10-05T04:09:54.050Z,2.90
2022-10-05T04:12:24.386Z,3.00
2022-10-05T04:14:54.796Z,2.88
2022-10-05T04:17:29.016Z,2.80
2022-10-05T04:20:00.859Z,2.72
2022-10-05T04:22:31.190Z,2.63
2022-10-05T04:25:01.707Z,2.80
2022-10-05T04:27:31.917Z,2.70
2022-10-05T04:30:03.617Z,2.55
2022-10-05T04:32:37.323Z,2.50
2022-10-05T04:35:22.608Z,2.50
2022-10-05T04:37:53.814Z,2.65
2022-10-05T04:40:31.526Z,2.60
2022-10-05T04:43:02.226Z,2.38
2022-10-05T04:45:34.302Z,2.10
2022-10-05T04:48:16.399Z,2.03
2022-10-05T04:50:48.989Z,2.13
2022-10-05T04:53:22.041Z,2.30
2022-10-05T04:55:53.570Z,2.20
2022-10-05T04:58:25.522Z,2.20
2022-10-05T05:00:58.988Z,2.23
2022-10-05T05:03:50.466Z,1.75
2022-10-05T05:06:22.478Z,1.70
2022-10-05T05:08:58.539Z,1.92
2022-10-05T05:11:29.823Z,2.20
2022-10-05T05:14:08.114Z,1.90
2022-10-05T05:16:38.039Z,2.08
2022-10-05T05:19:14.933Z,1.70
2022-10-05T05:21:48.656Z,2.00
2022-10-05T05:24:20.297Z,2.00
2022-10-05T05:26:58.659Z,1.80
2022-10-05T05:29:34.391Z,1.63
2022-10-05T05:32:06.626Z,1.70
2022-10-05T05:34:41.559Z,1.35
2022-10-05T05:37:16.308Z,1.67
2022-10-05T05:39:49.461Z,1.73
2022-10-05T05:42:21.233Z,1.40
2022-10-05T05:44:50.586Z,1.50
2022-10-05T05:47:20.466Z,1.70
2022-10-05T05:50:02.907Z,1.55
2022-10-05T05:52:37.755Z,1.60
2022-10-05T05:55:07.838Z,1.60
2022-10-05T05:57:38.459Z,1.83
2022-10-05T06:00:07.052Z,1.70
2022-10-05T06:02:38.847Z,2.00
2022-10-05T06:05:10.143Z,1.67
2022-10-05T06:07:39.340Z,1.75
2022-10-05T06:10:14.430Z,1.80
2022-10-05T06:12:43.193Z,1.52
2022-10-05T06:15:16.004Z,1.70
2022-10-05T06:17:46.324Z,1.47
2022-10-05T06:20:16.718Z,1.80
2022-10-05T06:22:46.811Z,1.98
2022-10-05T06:25:20.444Z,1.70
2022-10-05T06:27:59.307Z,1.92
2022-10-05T06:30:27.555Z,1.90
2022-10-05T06:33:02.388Z,2.20
2022-10-05T06:35:34.838Z,2.10
2022-10-05T06:38:20.797Z,2.00
2022-10-05T06:40:55.644Z,2.03
2022-10-05T06:43:30.041Z,2.07
2022-10-05T06:46:03.680Z,1.92
2022-10-05T06:48:36.267Z,2.38
2022-10-05T06:51:06.064Z,2.20
2022-10-05T06:53:35.959Z,2.03
2022-10-05T06:56:08.455Z,2.10
2022-10-05T06:58:42.734Z,1.90
2022-10-05T07:01:15.245Z,2.08
2022-10-05T07:03:48.703Z,1.67
2022-10-05T07:06:17.188Z,1.90
2022-10-05T07:09:08.551Z,2.10
2022-10-05T07:11:54.298Z,2.10
2022-10-05T07:14:27.235Z,1.90
2022-10-05T07:17:02.588Z,2.30
2022-10-05T07:19:34.023Z,2.53
2022-10-05T07:22:10.355Z,1.80
2022-10-05T07:24:41.613Z,1.98
2022-10-05T07:27:14.368Z,1.98
2022-10-05T07:29:46.323Z,1.98
2022-10-05T07:32:21.396Z,2.10
2022-10-05T07:34:52.488Z,2.27
2022-10-05T07:37:34.865Z,2.00
2022-10-05T07:40:07.868Z,2.08
2022-10-05T07:42:48.982Z,2.05
2022-10-05T07:45:23.219Z,2.05
2022-10-05T07:47:53.322Z,2.40
2022-10-05T07:50:23.724Z,2.47
2022-10-05T07:52:55.990Z,2.00
2022-10-05T07:55:25.687Z,2.35
2022-10-05T07:58:01.551Z,2.53
2022-10-05T08:00:40.528Z,2.27
2022-10-05T08:03:10.745Z,2.42
2022-10-05T08:05:41.559Z,2.60
2022-10-05T08:08:15.438Z,2.40
2022-10-05T08:10:47.604Z,2.42
2022-10-05T08:13:19.585Z,2.60
2022-10-05T08:15:48.513Z,2.42
2022-10-05T08:18:20.819Z,2.30
2022-10-05T08:20:49.240Z,2.25
2022-10-05T08:23:20.685Z,2.67
2022-10-05T08:25:54.059Z,2.40
2022-10-05T08:28:24.554Z,2.53
2022-10-05T08:31:00.978Z,2.30
2022-10-05T08:33:33.457Z,2.30
2022-10-05T08:36:05.539Z,2.60
2022-10-05T08:38:33.792Z,2.20
2022-10-05T08:41:14.958Z,2.55
2022-10-05T08:44:00.558Z,2.47
2022-10-05T08:46:36.982Z,2.40
2022-10-05T08:49:12.037Z,2.20
2022-10-05T08:52:00.147Z,2.67
2022-10-05T08:54:42.371Z,1.88
2022-10-05T08:57:21.264Z,1.63
2022-10-05T09:00:03.132Z,1.70
2022-10-05T09:02:39.900Z,1.70
2022-10-05T09:05:15.897Z,1.70
2022-10-05T09:07:55.903Z,1.80
2022-10-05T09:10:44.029Z,1.90
2022-10-05T09:13:15.942Z,1.65
2022-10-05T09:16:02.732Z,1.70
2022-10-05T09:18:49.766Z,1.90
2022-10-05T09:21:29.318Z,1.67
2022-10-05T09:24:00.784Z,1.70
2022-10-05T09:26:43.719Z,1.60
2022-10-05T09:29:23.521Z,1.80
2022-10-05T09:31:57.480Z,1.70
2022-10-05T09:34:39.731Z,1.80
2022-10-05T09:37:23.640Z,1.70
2022-10-05T09:40:09.381Z,1.60
2022-10-05T09:42:44.935Z,1.38
2022-10-05T09:45:43.580Z,1.60
2022-10-05T09:48:25.854Z,1.70
2022-10-05T09:50:58.745Z,1.45
2022-10-05T09:53:44.065Z,1.65
2022-10-05T09:59:19.971Z,1.40
2022-10-05T10:02:01.488Z,1.48
2022-10-05T10:04:35.957Z,1.25
2022-10-05T10:07:18.930Z,1.35
2022-10-05T10:10:00.111Z,1.20
2022-10-05T10:12:35.375Z,1.60
2022-10-05T10:15:20.551Z,1.40
2022-10-05T10:17:55.448Z,1.40
2022-10-05T10:20:31.447Z,1.65
2022-10-05T10:23:08.832Z,1.40
2022-10-05T10:25:55.251Z,1.45
2022-10-05T10:28:37.613Z,1.60
2022-10-05T10:31:17.527Z,1.70
2022-10-05T10:33:52.011Z,2.08
2022-10-05T10:36:22.731Z,1.92
2022-10-05T10:38:58.420Z,2.20
2022-10-05T10:41:32.341Z,2.30
2022-10-05T10:44:18.285Z,2.80
2022-10-05T10:46:48.488Z,2.90
2022-10-05T10:49:26.271Z,2.90
2022-10-05T10:52:00.601Z,2.80
2022-10-05T10:54:48.684Z,2.80
2022-10-05T10:57:18.560Z,3.00
2022-10-05T11:00:01.491Z,2.90
2022-10-05T11:02:49.976Z,2.80
2022-10-05T11:05:28.557Z,2.80
2022-10-05T11:08:04.195Z,3.00
2022-10-05T11:10:38.656Z,3.10
2022-10-05T11:13:14.722Z,2.83
2022-10-05T11:16:00.696Z,2.80
2022-10-05T11:18:34.639Z,3.20
2022-10-05T11:21:18.227Z,2.87
2022-10-05T11:23:56.371Z,2.80
2022-10-05T11:26:33.420Z,2.85
2022-10-05T11:29:18.296Z,2.88
2022-10-05T11:32:00.143Z,3.40
2022-10-05T11:34:44.623Z,3.27
2022-10-05T11:37:31.807Z,2.90
2022-10-05T11:40:12.355Z,2.90
2022-10-05T11:42:53.412Z,3.00
2022-10-05T11:45:26.570Z,2.58
2022-10-05T11:48:11.892Z,2.70
2022-10-05T11:50:41.066Z,2.08
2022-10-05T11:53:14.276Z,2.30
2022-10-05T11:55:43.611Z,2.72
2022-10-05T11:58:16.076Z,2.72
2022-10-05T12:00:48.556Z,2.53
2022-10-05T12:03:19.400Z,2.47
2022-10-05T12:05:53.416Z,2.40
2022-10-05T12:08:24.766Z,2.30
2022-10-05T12:10:56.008Z,2.30
2022-10-05T12:13:28.588Z,2.83
2022-10-05T12:15:59.865Z,2.10
2022-10-05T12:18:43.156Z,2.20
2022-10-05T12:21:14.751Z,1.95
2022-10-05T12:23:43.965Z,2.25
2022-10-05T12:26:14.769Z,2.40
2022-10-05T12:28:48.323Z,2.20
2022-10-05T12:31:27.464Z,2.20
2022-10-05T12:33:58.472Z,2.30
2022-10-05T12:36:46.250Z,2.40
2022-10-05T12:39:19.660Z,2.57
2022-10-05T12:41:50.412Z,2.60
2022-10-05T12:44:22.199Z,2.60
2022-10-05T12:46:57.744Z,2.70
2022-10-05T12:49:37.185Z,2.78
2022-10-05T12:52:06.288Z,2.37
2022-10-05T12:54:40.050Z,2.70
2022-10-05T12:57:12.051Z,2.60
2022-10-05T12:59:41.756Z,2.70
2022-10-05T13:02:17.720Z,2.47
2022-10-05T13:04:49.127Z,2.40
2022-10-05T13:07:26.843Z,2.40
2022-10-05T13:09:58.999Z,2.75
2022-10-05T13:12:35.903Z,2.47
2022-10-05T13:15:11.612Z,2.20
2022-10-05T13:17:44.926Z,2.87
2022-10-05T13:20:15.668Z,2.58
2022-10-05T13:22:44.563Z,2.30
2022-10-05T13:25:27.145Z,2.30
2022-10-05T13:28:06.139Z,2.15
2022-10-05T13:30:34.387Z,2.40
2022-10-05T13:33:06.828Z,2.00
2022-10-05T13:35:44.795Z,2.00
2022-10-05T13:38:21.136Z,2.28
2022-10-05T13:40:53.644Z,1.90
2022-10-05T13:43:26.675Z,1.95
2022-10-05T13:45:57.036Z,1.80
2022-10-05T13:48:42.283Z,1.90
2022-10-05T13:51:13.025Z,1.80
2022-10-05T13:53:44.891Z,1.80
2022-10-05T13:56:16.471Z,1.70
2022-10-05T13:58:47.355Z,1.70
2022-10-05T14:01:16.785Z,1.73
2022-10-05T14:04:04.448Z,1.60
2022-10-05T14:06:33.183Z,1.60
2022-10-05T14:09:00.851Z,1.50
2022-10-05T14:11:31.592Z,2.00
2022-10-05T14:14:13.369Z,1.55
2022-10-05T14:16:45.919Z,1.60
2022-10-05T14:19:20.156Z,1.88
2022-10-05T14:21:50.773Z,1.80
2022-10-05T14:24:32.112Z,1.50
2022-10-05T14:27:20.169Z,1.75
2022-10-05T14:29:53.480Z,1.67
2022-10-05T14:32:23.510Z,2.00
2022-10-05T14:35:01.136Z,1.73
2022-10-05T14:37:32.835Z,1.80
2022-10-05T14:40:03.655Z,1.90
2022-10-05T14:42:46.265Z,1.60
2022-10-05T14:45:15.829Z,2.25
2022-10-05T14:47:46.377Z,2.22
2022-10-05T14:50:18.199Z,2.17
2022-10-05T14:52:51.813Z,2.20
2022-10-05T14:55:28.491Z,2.55
2022-10-05T14:58:03.395Z,2.72
2022-10-05T15:00:32.807Z,2.45
2022-10-05T15:03:18.753Z,2.50
2022-10-05T15:05:49.964Z,2.35
2022-10-05T15:08:27.030Z,2.50
2022-10-05T15:10:57.548Z,2.50
2022-10-05T15:13:25.486Z,2.80
2022-10-05T15:15:54.477Z,2.27
2022-10-05T15:18:30.992Z,2.35
2022-10-05T15:21:06.943Z,2.00
2022-10-05T15:23:38.244Z,2.15
2022-10-05T15:26:13.277Z,2.53
2022-10-05T15:28:42.872Z,1.97
2022-10-05T15:31:19.142Z,2.35
2022-10-05T15:33:54.133Z,2.20
2022-10-05T15:36:25.046Z,2.30
2022-10-05T15:39:00.461Z,2.20
2022-10-05T15:41:32.827Z,2.13
2022-10-05T15:44:06.124Z,2.30
2022-10-05T15:46:36.499Z,2.50
2022-10-05T15:49:08.274Z,2.38
2022-10-05T15:51:42.258Z,2.30
2022-10-05T15:54:30.213Z,2.27
2022-10-05T15:57:00.273Z,2.20
2022-10-05T15:59:32.332Z,2.67
2022-10-05T16:02:01.759Z,2.40
2022-10-05T16:04:37.306Z,2.10
2022-10-05T16:07:27.936Z,2.60
2022-10-05T16:09:58.108Z,2.17
2022-10-05T16:12:30.935Z,2.33
2022-10-05T16:15:04.153Z,2.05
2022-10-05T16:17:37.861Z,2.30
2022-10-05T16:20:14.549Z,2.60
2022-10-05T16:22:46.676Z,2.50
2022-10-05T16:25:22.095Z,2.47
2022-10-05T16:27:53.737Z,2.30
2022-10-05T16:30:22.513Z,2.53
2022-10-05T16:32:54.004Z,2.13
2022-10-05T16:35:25.867Z,2.33
2022-10-05T16:37:59.934Z,2.30
2022-10-05T16:40:33.026Z,2.38
2022-10-05T16:43:05.719Z,2.40
2022-10-05T16:45:45.692Z,2.60
2022-10-05T16:48:17.387Z,2.47
2022-10-05T16:50:49.514Z,2.40
2022-10-05T16:53:20.887Z,2.30
2022-10-05T16:55:49.442Z,2.58
2022-10-05T16:58:18.972Z,2.60
2022-10-05T17:01:01.733Z,2.60
2022-10-05T17:03:35.537Z,2.63
2022-10-05T17:06:12.910Z,2.47
2022-10-05T17:08:49.655Z,2.88
2022-10-05T17:11:24.348Z,2.80
2022-10-05T17:13:58.285Z,2.28
2022-10-05T17:16:29.937Z,2.65
2022-10-05T17:19:15.160Z,2.88
2022-10-05T17:21:44.386Z,2.80
2022-10-05T17:24:24.388Z,3.07
2022-10-05T17:26:56.705Z,2.70
2022-10-05T17:29:28.821Z,3.13
2022-10-05T17:32:08.665Z,2.80
2022-10-05T17:34:37.487Z,3.45
2022-10-05T17:37:17.129Z,3.03
2022-10-05T17:39:53.280Z,3.08
2022-10-05T17:42:38.631Z,3.75
2022-10-05T17:45:20.848Z,3.10
2022-10-05T17:47:57.588Z,2.90
2022-10-05T17:50:57.447Z,2.63
2022-10-05T17:53:53.225Z,2.80
2022-10-05T17:56:23.029Z,2.90
2022-10-05T17:58:59.779Z,2.60
2022-10-05T18:01:30.301Z,2.78
2022-10-05T18:04:18.405Z,2.60
2022-10-05T18:06:48.010Z,2.80
2022-10-05T18:09:21.665Z,2.95
2022-10-05T18:12:08.937Z,2.90
2022-10-05T18:14:51.172Z,2.95
2022-10-05T18:17:35.098Z,3.33
2022-10-05T18:20:13.506Z,2.50
2022-10-05T18:22:40.914Z,2.70
2022-10-05T18:25:10.124Z,2.88
2022-10-05T18:27:50.809Z,2.75
2022-10-05T18:30:20.457Z,2.20
2022-10-05T18:33:17.712Z,1.67
2022-10-05T18:35:50.480Z,1.13
2022-10-05T18:38:26.721Z,1.00
2022-10-05T18:40:57.202Z,1.48
2022-10-05T18:43:31.204Z,0.90
2022-10-05T18:46:05.026Z,0.60
2022-10-05T18:48:36.635Z,0.60
2022-10-05T18:51:08.497Z,0.68
2022-10-05T18:53:39.895Z,0.80
2022-10-05T18:56:15.908Z,0.63
2022-10-05T18:58:50.998Z,0.88
2022-10-05T19:01:35.936Z,1.00
2022-10-05T19:04:10.171Z,0.60
2022-10-05T19:06:43.079Z,1.02
2022-10-05T19:09:18.060Z,0.77
2022-10-05T19:11:49.736Z,0.60
2022-10-05T19:14:23.935Z,1.08
2022-10-05T19:17:00.403Z,0.93
2022-10-05T19:19:37.916Z,1.58
2022-10-05T19:22:08.807Z,1.07
2022-10-05T19:24:50.380Z,1.17
2022-10-05T19:27:21.618Z,1.33
2022-10-05T19:30:05.656Z,1.55
2022-10-05T19:32:39.043Z,1.88
2022-10-05T19:35:11.003Z,0.83
2022-10-05T19:37:46.043Z,1.15
2022-10-05T19:40:16.729Z,1.02
2022-10-05T19:42:50.580Z,1.08
2022-10-05T19:45:22.259Z,0.80
2022-10-05T19:47:57.370Z,1.27
2022-10-05T19:50:28.872Z,1.00
2022-10-05T19:53:07.263Z,0.80
2022-10-05T19:55:39.616Z,0.75
2022-10-05T19:58:18.019Z,0.80
2022-10-05T20:00:49.037Z,0.97
2022-10-05T20:03:18.051Z,0.90
2022-10-05T20:05:45.536Z,0.98
2022-10-05T20:08:16.983Z,0.70
2022-10-05T20:10:44.706Z,0.95
2022-10-05T20:13:19.776Z,0.87
2022-10-05T20:16:19.797Z,0.70
2022-10-05T20:19:07.727Z,0.73
2022-10-05T20:21:56.608Z,0.90
2022-10-05T20:24:25.777Z,0.70
2022-10-05T20:27:06.025Z,0.70
2022-10-05T20:29:35.369Z,0.70
2022-10-05T20:32:08.017Z,0.82
2022-10-05T20:34:37.349Z,0.88
2022-10-05T20:37:04.754Z,0.98
2022-10-05T20:39:32.167Z,0.80
2022-10-05T20:41:59.637Z,0.85
2022-10-05T20:44:27.287Z,1.10
2022-10-05T20:46:58.195Z,1.15
2022-10-05T20:49:27.031Z,1.00
2022-10-05T20:51:56.482Z,1.10
2022-10-05T20:54:23.950Z,1.27
2022-10-05T20:56:51.290Z,1.02
2022-10-05T20:59:18.763Z,1.17
2022-10-05T21:01:47.816Z,1.13
2022-10-05T21:04:18.684Z,1.20
2022-10-05T21:06:46.139Z,1.23
2022-10-05T21:09:15.653Z,1.33
2022-10-05T21:11:43.306Z,1.40
2022-10-05T21:14:10.779Z,1.50
2022-10-05T21:16:40.641Z,1.50
2022-10-05T21:19:09.280Z,1.50
2022-10-05T21:21:36.685Z,1.42
2022-10-05T21:24:04.420Z,1.50
2022-10-05T21:26:33.350Z,1.20
2022-10-05T21:29:01.058Z,1.43
2022-10-05T21:31:29.436Z,1.30
2022-10-05T21:33:56.998Z,1.20
2022-10-05T21:36:24.834Z,1.10
2022-10-05T21:38:53.425Z,1.30
2022-10-05T21:41:21.378Z,1.20
2022-10-05T21:43:50.063Z,1.30
2022-10-05T21:46:18.563Z,1.10
2022-10-05T21:48:45.992Z,1.35
2022-10-05T21:51:16.494Z,1.25
2022-10-05T21:53:46.782Z,1.30
2022-10-05T21:56:15.739Z,1.20
2022-10-05T21:58:44.687Z,1.20
2022-10-05T22:01:13.466Z,1.00
2022-10-05T22:03:41.018Z,1.00
2022-10-05T22:06:08.702Z,1.30
2022-10-05T22:08:36.052Z,1.10
2022-10-05T22:11:09.788Z,1.13
2022-10-05T22:13:40.653Z,1.20
2022-10-05T22:16:08.054Z,1.10
2022-10-05T22:18:36.820Z,1.03
2022-10-05T22:21:05.002Z,1.45
2022-10-05T22:23:33.586Z,1.20
2022-10-05T22:26:01.139Z,1.13
2022-10-05T22:28:29.235Z,0.88
2022-10-05T22:30:56.803Z,1.10
2022-10-05T22:33:24.275Z,1.20
2022-10-05T22:35:53.075Z,1.10
2022-10-05T22:38:20.427Z,1.20
2022-10-05T22:40:47.775Z,1.27
2022-10-05T22:43:15.109Z,1.20
2022-10-05T22:45:42.583Z,1.33
2022-10-05T22:48:10.079Z,1.25
2022-10-05T22:50:37.429Z,1.30
2022-10-05T22:53:06.137Z,2.05
2022-10-05T22:55:33.470Z,1.17
2022-10-05T22:58:02.110Z,1.25
2022-10-05T23:00:53.426Z,1.08
2022-10-05T23:03:17.050Z,1.00
2022-10-05T23:05:44.405Z,1.58
2022-10-05T23:08:13.467Z,0.90
2022-10-05T23:10:40.881Z,1.10
2022-10-05T23:13:08.703Z,1.30
2022-10-05T23:15:36.097Z,1.08
2022-10-05T23:18:03.475Z,1.13
2022-10-05T23:20:30.849Z,0.97
2022-10-05T23:22:59.991Z,1.15
2022-10-05T23:25:28.719Z,0.90
2022-10-05T23:27:56.148Z,1.60
2022-10-05T23:30:23.572Z,1.10
2022-10-05T23:32:50.954Z,1.17
2022-10-05T23:35:18.434Z,1.77
2022-10-05T23:37:45.850Z,1.08
2022-10-05T23:40:14.206Z,1.10
2022-10-05T23:42:43.240Z,1.02
2022-10-05T23:45:11.369Z,1.23
2022-10-05T23:47:39.151Z,1.00
2022-10-05T23:50:09.623Z,1.35
2022-10-05T23:52:37.648Z,1.25
2022-10-05T23:55:05.753Z,2.05
2022-10-05T23:57:33.489Z,1.07
